SVA624 OEMA-OERK
Flight info
| Callsign | SVA624 |
|---|---|
| Flight time | 1h 2m |
| Altitude | 39000 |
| Route | MEDRO M872 ORDEM |
| Aircraft | A333/H-SDE3GHIJ2J3J5M1RVWXY/LB2D1 |
Departure
| Time | 2026-04-24 19:08 |
|---|---|
| Airport | Prince Mohammad Bin Abdulaziz Airport (OEMA) |
Arrival
| Time | 2026-04-24 20:10 |
|---|---|
| Airport | King Khalid International Airport (OERK) |
| Time | Latitude | Longitude | Altitude | Speed | Heading |
|---|---|---|---|---|---|
| 2026-04-24 18:54 | 24.55675 | 39.71231 | 2172 ft | 0 kts | 79° |
| 2026-04-24 18:57 | 24.55674 | 39.71223 | 2172 ft | 2 kts | 79° |
| 2026-04-24 18:57 | 24.55671 | 39.71207 | 2172 ft | 2 kts | 79° |
| 2026-04-24 18:58 | 24.55668 | 39.71191 | 2172 ft | 2 kts | 79° |
| 2026-04-24 18:58 | 24.55666 | 39.71180 | 2172 ft | 1 kts | 79° |
| 2026-04-24 18:58 | 24.55662 | 39.71165 | 2172 ft | 2 kts | 53° |
| 2026-04-24 18:58 | 24.55652 | 39.71153 | 2172 ft | 2 kts | 28° |
| 2026-04-24 18:59 | 24.55637 | 39.71147 | 2172 ft | 2 kts | 5° |
| 2026-04-24 18:59 | 24.55627 | 39.71147 | 2172 ft | 0 kts | 349° |
| 2026-04-24 18:59 | 24.55623 | 39.71148 | 2172 ft | 0 kts | 348° |
| 2026-04-24 19:01 | 24.55628 | 39.71147 | 2172 ft | 2 kts | 349° |
| 2026-04-24 19:02 | 24.55660 | 39.71141 | 2172 ft | 6 kts | 349° |
| 2026-04-24 19:02 | 24.55714 | 39.71130 | 2172 ft | 8 kts | 349° |
| 2026-04-24 19:02 | 24.55778 | 39.71116 | 2172 ft | 11 kts | 346° |
| 2026-04-24 19:02 | 24.55869 | 39.71097 | 2172 ft | 13 kts | 349° |
| 2026-04-24 19:03 | 24.55961 | 39.71077 | 2172 ft | 9 kts | 349° |
| 2026-04-24 19:03 | 24.56006 | 39.71052 | 2172 ft | 6 kts | 306° |
| 2026-04-24 19:03 | 24.56010 | 39.71004 | 2172 ft | 6 kts | 265° |
| 2026-04-24 19:03 | 24.56001 | 39.70937 | 2172 ft | 8 kts | 260° |
| 2026-04-24 19:04 | 24.56026 | 39.70878 | 2173 ft | 9 kts | 325° |
| 2026-04-24 19:04 | 24.56118 | 39.70846 | 2173 ft | 16 kts | 349° |
| 2026-04-24 19:04 | 24.56234 | 39.70822 | 2173 ft | 17 kts | 350° |
| 2026-04-24 19:04 | 24.56359 | 39.70795 | 2173 ft | 18 kts | 350° |
| 2026-04-24 19:05 | 24.56491 | 39.70768 | 2174 ft | 19 kts | 349° |
| 2026-04-24 19:05 | 24.56625 | 39.70739 | 2174 ft | 20 kts | 348° |
| 2026-04-24 19:05 | 24.56767 | 39.70708 | 2174 ft | 20 kts | 349° |
| 2026-04-24 19:05 | 24.56928 | 39.70675 | 2175 ft | 25 kts | 349° |
| 2026-04-24 19:06 | 24.57109 | 39.70636 | 2175 ft | 26 kts | 348° |
| 2026-04-24 19:06 | 24.57295 | 39.70596 | 2176 ft | 27 kts | 350° |
| 2026-04-24 19:06 | 24.57484 | 39.70556 | 2176 ft | 26 kts | 349° |
| 2026-04-24 19:06 | 24.57620 | 39.70521 | 2176 ft | 16 kts | 329° |
| 2026-04-24 19:07 | 24.57644 | 39.70425 | 2176 ft | 13 kts | 266° |
| 2026-04-24 19:07 | 24.57566 | 39.70347 | 2176 ft | 19 kts | 171° |
| 2026-04-24 19:07 | 24.57349 | 39.70393 | 2176 ft | 57 kts | 169° |
| 2026-04-24 19:07 | 24.56731 | 39.70524 | 2175 ft | 119 kts | 168° |
| 2026-04-24 19:08 | 24.55743 | 39.70730 | 2183 ft | 171 kts | 172° |
| 2026-04-24 19:08 | 24.54577 | 39.70931 | 3148 ft | 162 kts | 172° |
| 2026-04-24 19:08 | 24.53531 | 39.71118 | 4191 ft | 149 kts | 172° |
| 2026-04-24 19:08 | 24.52557 | 39.71306 | 4603 ft | 150 kts | 173° |
| 2026-04-24 19:09 | 24.51364 | 39.71561 | 4918 ft | 191 kts | 171° |
| 2026-04-24 19:09 | 24.50031 | 39.71861 | 5315 ft | 197 kts | 169° |
| 2026-04-24 19:09 | 24.48571 | 39.72195 | 5352 ft | 221 kts | 171° |
| 2026-04-24 19:09 | 24.47002 | 39.72537 | 5780 ft | 231 kts | 171° |
| 2026-04-24 19:10 | 24.45378 | 39.72884 | 6203 ft | 247 kts | 171° |
| 2026-04-24 19:10 | 24.43633 | 39.73532 | 6307 ft | 279 kts | 149° |
| 2026-04-24 19:10 | 24.42278 | 39.75094 | 6963 ft | 289 kts | 121° |
| 2026-04-24 19:10 | 24.41691 | 39.77210 | 7683 ft | 296 kts | 97° |
| 2026-04-24 19:11 | 24.41623 | 39.79505 | 8349 ft | 301 kts | 93° |
| 2026-04-24 19:11 | 24.41603 | 39.81814 | 9013 ft | 305 kts | 92° |
| 2026-04-24 19:11 | 24.41600 | 39.84191 | 9692 ft | 309 kts | 92° |
| 2026-04-24 19:11 | 24.41600 | 39.86581 | 10016 ft | 319 kts | 92° |
| 2026-04-24 19:12 | 24.41600 | 39.89050 | 9953 ft | 317 kts | 92° |
| 2026-04-24 19:12 | 24.41601 | 39.91436 | 9987 ft | 312 kts | 92° |
| 2026-04-24 19:12 | 24.41601 | 39.93858 | 9998 ft | 313 kts | 92° |
| 2026-04-24 19:12 | 24.41600 | 39.96279 | 10002 ft | 313 kts | 92° |
| 2026-04-24 19:13 | 24.41599 | 39.97855 | 10006 ft | 313 kts | 92° |
| 2026-04-24 19:13 | 24.41597 | 40.01073 | 10007 ft | 312 kts | 92° |
| 2026-04-24 19:13 | 24.41596 | 40.03531 | 10335 ft | 325 kts | 92° |
| 2026-04-24 19:13 | 24.41596 | 40.05980 | 11257 ft | 318 kts | 92° |
| 2026-04-24 19:14 | 24.41591 | 40.08420 | 11897 ft | 323 kts | 92° |
| 2026-04-24 19:14 | 24.41589 | 40.10926 | 12575 ft | 326 kts | 93° |
| 2026-04-24 19:14 | 24.41585 | 40.13446 | 13215 ft | 330 kts | 93° |
| 2026-04-24 19:14 | 24.41582 | 40.15971 | 13837 ft | 334 kts | 93° |
| 2026-04-24 19:15 | 24.41578 | 40.18550 | 14429 ft | 339 kts | 94° |
| 2026-04-24 19:15 | 24.41572 | 40.21171 | 15007 ft | 344 kts | 94° |
| 2026-04-24 19:15 | 24.41568 | 40.23799 | 15670 ft | 346 kts | 94° |
| 2026-04-24 19:15 | 24.41561 | 40.26487 | 16304 ft | 349 kts | 94° |
| 2026-04-24 19:16 | 24.41551 | 40.31901 | 17446 ft | 357 kts | 95° |
| 2026-04-24 19:16 | 24.41540 | 40.34626 | 18005 ft | 361 kts | 95° |
| 2026-04-24 19:16 | 24.41533 | 40.37420 | 18542 ft | 365 kts | 95° |
| 2026-04-24 19:17 | 24.41523 | 40.40189 | 19185 ft | 366 kts | 95° |
| 2026-04-24 19:17 | 24.41513 | 40.43019 | 19702 ft | 370 kts | 95° |
| 2026-04-24 19:17 | 24.41504 | 40.45857 | 20185 ft | 375 kts | 95° |
| 2026-04-24 19:17 | 24.41492 | 40.48782 | 20684 ft | 379 kts | 95° |
| 2026-04-24 19:18 | 24.41483 | 40.51676 | 21212 ft | 381 kts | 95° |
| 2026-04-24 19:18 | 24.41471 | 40.54595 | 21680 ft | 385 kts | 95° |
| 2026-04-24 19:18 | 24.41457 | 40.57546 | 22177 ft | 387 kts | 94° |
| 2026-04-24 19:18 | 24.41443 | 40.60539 | 22601 ft | 392 kts | 94° |
| 2026-04-24 19:19 | 24.41430 | 40.63554 | 23071 ft | 395 kts | 94° |
| 2026-04-24 19:19 | 24.41418 | 40.66578 | 23551 ft | 398 kts | 95° |
| 2026-04-24 19:19 | 24.41403 | 40.69644 | 23969 ft | 402 kts | 95° |
| 2026-04-24 19:19 | 24.41384 | 40.72758 | 24354 ft | 407 kts | 95° |
| 2026-04-24 19:20 | 24.41369 | 40.75875 | 24774 ft | 409 kts | 95° |
| 2026-04-24 19:20 | 24.41352 | 40.79017 | 25243 ft | 412 kts | 96° |
| 2026-04-24 19:20 | 24.41332 | 40.82201 | 25559 ft | 418 kts | 95° |
| 2026-04-24 19:20 | 24.41314 | 40.85383 | 25983 ft | 420 kts | 96° |
| 2026-04-24 19:21 | 24.41291 | 40.88606 | 26437 ft | 422 kts | 96° |
| 2026-04-24 19:21 | 24.41272 | 40.91851 | 26782 ft | 426 kts | 95° |
| 2026-04-24 19:21 | 24.41249 | 40.95127 | 27230 ft | 428 kts | 96° |
| 2026-04-24 19:21 | 24.41228 | 40.98414 | 27595 ft | 432 kts | 96° |
| 2026-04-24 19:22 | 24.41213 | 41.00650 | 27809 ft | 436 kts | 96° |
| 2026-04-24 19:22 | 24.41178 | 41.05086 | 28302 ft | 440 kts | 96° |
| 2026-04-24 19:22 | 24.41007 | 41.08407 | 28753 ft | 436 kts | 103° |
| 2026-04-24 19:22 | 24.40648 | 41.11740 | 29171 ft | 438 kts | 103° |
| 2026-04-24 19:23 | 24.40293 | 41.15072 | 29475 ft | 443 kts | 103° |
| 2026-04-24 19:23 | 24.39942 | 41.18443 | 29910 ft | 445 kts | 103° |
| 2026-04-24 19:23 | 24.39585 | 41.21826 | 30269 ft | 449 kts | 103° |
| 2026-04-24 19:23 | 24.39221 | 41.25271 | 30718 ft | 450 kts | 103° |
| 2026-04-24 19:24 | 24.38862 | 41.28682 | 31045 ft | 453 kts | 103° |
| 2026-04-24 19:24 | 24.38501 | 41.32122 | 31021 ft | 448 kts | 103° |
| 2026-04-24 19:24 | 24.37765 | 41.38996 | 31078 ft | 465 kts | 103° |
| 2026-04-24 19:25 | 24.37383 | 41.42573 | 31063 ft | 478 kts | 103° |
| 2026-04-24 19:25 | 24.36988 | 41.46261 | 31061 ft | 489 kts | 102° |
| 2026-04-24 19:25 | 24.36179 | 41.53845 | 31066 ft | 509 kts | 102° |
| 2026-04-24 19:26 | 24.35335 | 41.61689 | 31059 ft | 519 kts | 102° |
| 2026-04-24 19:26 | 24.34501 | 41.69424 | 31040 ft | 506 kts | 103° |
| 2026-04-24 19:27 | 24.33661 | 41.77134 | 31052 ft | 508 kts | 103° |
| 2026-04-24 19:27 | 24.33113 | 41.84817 | 31032 ft | 515 kts | 91° |
| 2026-04-24 19:28 | 24.33674 | 41.92686 | 31055 ft | 517 kts | 90° |
| 2026-04-24 19:28 | 24.34141 | 42.00537 | 31050 ft | 514 kts | 90° |
| 2026-04-24 19:29 | 24.34820 | 42.12316 | 31060 ft | 513 kts | 90° |
| 2026-04-24 19:30 | 24.35267 | 42.20187 | 31054 ft | 513 kts | 90° |
| 2026-04-24 19:30 | 24.35706 | 42.28030 | 31073 ft | 515 kts | 90° |
| 2026-04-24 19:31 | 24.36140 | 42.35821 | 31068 ft | 511 kts | 90° |
| 2026-04-24 19:31 | 24.36574 | 42.43632 | 31069 ft | 511 kts | 90° |
| 2026-04-24 19:32 | 24.37004 | 42.51477 | 31060 ft | 511 kts | 89° |
| 2026-04-24 19:32 | 24.37425 | 42.59270 | 31083 ft | 511 kts | 90° |
| 2026-04-24 19:33 | 24.37846 | 42.67070 | 31071 ft | 511 kts | 90° |
| 2026-04-24 19:33 | 24.38262 | 42.74875 | 31089 ft | 510 kts | 90° |
| 2026-04-24 19:34 | 24.38673 | 42.82702 | 31080 ft | 509 kts | 90° |
| 2026-04-24 19:34 | 24.39077 | 42.90442 | 31091 ft | 509 kts | 89° |
| 2026-04-24 19:35 | 24.39479 | 42.98237 | 31100 ft | 509 kts | 89° |
| 2026-04-24 19:35 | 24.39877 | 43.06006 | 31098 ft | 508 kts | 90° |
| 2026-04-24 19:36 | 24.40269 | 43.13750 | 31098 ft | 508 kts | 90° |
| 2026-04-24 19:36 | 24.40658 | 43.21514 | 31101 ft | 509 kts | 90° |
| 2026-04-24 19:37 | 24.41045 | 43.29313 | 31091 ft | 508 kts | 90° |
| 2026-04-24 19:37 | 24.41427 | 43.37087 | 31101 ft | 510 kts | 89° |
| 2026-04-24 19:38 | 24.41803 | 43.44852 | 31097 ft | 509 kts | 89° |
| 2026-04-24 19:38 | 24.42178 | 43.52649 | 31087 ft | 510 kts | 89° |
| 2026-04-24 19:39 | 24.42550 | 43.60430 | 31088 ft | 508 kts | 89° |
| 2026-04-24 19:39 | 24.42912 | 43.68190 | 31073 ft | 509 kts | 90° |
| 2026-04-24 19:40 | 24.43274 | 43.75952 | 31079 ft | 509 kts | 90° |
| 2026-04-24 19:40 | 24.43631 | 43.83708 | 31079 ft | 509 kts | 90° |
| 2026-04-24 19:41 | 24.43985 | 43.91510 | 31077 ft | 510 kts | 89° |
| 2026-04-24 19:41 | 24.44337 | 43.99329 | 31063 ft | 509 kts | 89° |
| 2026-04-24 19:42 | 24.44676 | 44.06935 | 31062 ft | 508 kts | 89° |
| 2026-04-24 19:42 | 24.45292 | 44.14738 | 31057 ft | 513 kts | 79° |
| 2026-04-24 19:43 | 24.46725 | 44.22435 | 31069 ft | 515 kts | 80° |
| 2026-04-24 19:43 | 24.48072 | 44.30138 | 31087 ft | 513 kts | 81° |
| 2026-04-24 19:44 | 24.49406 | 44.37830 | 31087 ft | 513 kts | 80° |
| 2026-04-24 19:44 | 24.50737 | 44.45525 | 31094 ft | 513 kts | 81° |
| 2026-04-24 19:45 | 24.52071 | 44.53265 | 31096 ft | 513 kts | 81° |
| 2026-04-24 19:45 | 24.53400 | 44.60998 | 31088 ft | 514 kts | 81° |
| 2026-04-24 19:46 | 24.54722 | 44.68728 | 31080 ft | 513 kts | 81° |
| 2026-04-24 19:46 | 24.55387 | 44.72615 | 30974 ft | 500 kts | 81° |
| 2026-04-24 19:46 | 24.56024 | 44.76344 | 30348 ft | 497 kts | 81° |
| 2026-04-24 19:46 | 24.56656 | 44.80053 | 29761 ft | 492 kts | 81° |
| 2026-04-24 19:47 | 24.57271 | 44.83681 | 29327 ft | 486 kts | 81° |
| 2026-04-24 19:47 | 24.57898 | 44.87374 | 29122 ft | 490 kts | 81° |
| 2026-04-24 19:47 | 24.58522 | 44.91054 | 28884 ft | 489 kts | 81° |
| 2026-04-24 19:47 | 24.59147 | 44.94735 | 28581 ft | 482 kts | 81° |
| 2026-04-24 19:48 | 24.59804 | 44.98290 | 28011 ft | 478 kts | 79° |
| 2026-04-24 19:48 | 24.60509 | 45.01886 | 27421 ft | 474 kts | 79° |
| 2026-04-24 19:48 | 24.61862 | 45.08879 | 26152 ft | 460 kts | 79° |
| 2026-04-24 19:49 | 24.63169 | 45.15642 | 23844 ft | 444 kts | 79° |
| 2026-04-24 19:49 | 24.64412 | 45.22093 | 21813 ft | 425 kts | 79° |
| 2026-04-24 19:50 | 24.66213 | 45.31501 | 20182 ft | 414 kts | 81° |
| 2026-04-24 19:50 | 24.66995 | 45.34539 | 20050 ft | 413 kts | 68° |
| 2026-04-24 19:51 | 24.69328 | 45.40084 | 20026 ft | 383 kts | 67° |
| 2026-04-24 19:51 | 24.70416 | 45.42701 | 19835 ft | 375 kts | 67° |
| 2026-04-24 19:52 | 24.72565 | 45.47908 | 19106 ft | 371 kts | 67° |
| 2026-04-24 19:52 | 24.73633 | 45.50501 | 18782 ft | 368 kts | 68° |
| 2026-04-24 19:52 | 24.74691 | 45.53067 | 18481 ft | 365 kts | 68° |
| 2026-04-24 19:52 | 24.75753 | 45.55650 | 18102 ft | 364 kts | 68° |
| 2026-04-24 19:53 | 24.76788 | 45.58166 | 17765 ft | 361 kts | 68° |
| 2026-04-24 19:53 | 24.77829 | 45.60702 | 17432 ft | 359 kts | 68° |
| 2026-04-24 19:53 | 24.79869 | 45.65674 | 16786 ft | 354 kts | 69° |
| 2026-04-24 19:54 | 24.80879 | 45.68130 | 16495 ft | 350 kts | 69° |
| 2026-04-24 19:54 | 24.81884 | 45.70580 | 16094 ft | 347 kts | 69° |
| 2026-04-24 19:54 | 24.82892 | 45.73044 | 15627 ft | 350 kts | 69° |
| 2026-04-24 19:54 | 24.83881 | 45.75456 | 15352 ft | 345 kts | 69° |
| 2026-04-24 19:55 | 24.84534 | 45.77055 | 14963 ft | 339 kts | 70° |
| 2026-04-24 19:55 | 24.85823 | 45.80201 | 13960 ft | 337 kts | 70° |
| 2026-04-24 19:55 | 24.86781 | 45.82542 | 13241 ft | 334 kts | 70° |
| 2026-04-24 19:55 | 24.87725 | 45.84856 | 12566 ft | 330 kts | 70° |
| 2026-04-24 19:56 | 24.88669 | 45.87169 | 11902 ft | 326 kts | 70° |
| 2026-04-24 19:56 | 24.89593 | 45.89431 | 11208 ft | 324 kts | 70° |
| 2026-04-24 19:56 | 24.90511 | 45.91684 | 10604 ft | 318 kts | 70° |
| 2026-04-24 19:56 | 24.91407 | 45.93881 | 9971 ft | 314 kts | 70° |
| 2026-04-24 19:57 | 24.92303 | 45.96077 | 9318 ft | 311 kts | 70° |
| 2026-04-24 19:57 | 24.93181 | 45.98236 | 8774 ft | 304 kts | 70° |
| 2026-04-24 19:57 | 24.94053 | 46.00377 | 8195 ft | 298 kts | 69° |
| 2026-04-24 19:57 | 24.94901 | 46.02466 | 7701 ft | 296 kts | 70° |
| 2026-04-24 19:58 | 24.95742 | 46.04530 | 7520 ft | 291 kts | 70° |
| 2026-04-24 19:58 | 24.96574 | 46.06578 | 7263 ft | 289 kts | 69° |
| 2026-04-24 19:58 | 24.97405 | 46.08617 | 7028 ft | 287 kts | 69° |
| 2026-04-24 19:58 | 24.98220 | 46.10625 | 6803 ft | 285 kts | 69° |
| 2026-04-24 19:59 | 24.99033 | 46.12630 | 6548 ft | 283 kts | 69° |
| 2026-04-24 19:59 | 24.99848 | 46.14633 | 6323 ft | 281 kts | 69° |
| 2026-04-24 19:59 | 25.00636 | 46.16575 | 6304 ft | 269 kts | 69° |
| 2026-04-24 19:59 | 25.01395 | 46.18449 | 6291 ft | 259 kts | 69° |
| 2026-04-24 20:00 | 25.02117 | 46.20235 | 6273 ft | 250 kts | 70° |
| 2026-04-24 20:00 | 25.02825 | 46.21979 | 6246 ft | 240 kts | 70° |
| 2026-04-24 20:00 | 25.03498 | 46.23647 | 6072 ft | 235 kts | 70° |
| 2026-04-24 20:00 | 25.04163 | 46.25295 | 6030 ft | 232 kts | 70° |
| 2026-04-24 20:01 | 25.04833 | 46.26951 | 6051 ft | 236 kts | 70° |
| 2026-04-24 20:01 | 25.05517 | 46.28643 | 6034 ft | 237 kts | 69° |
| 2026-04-24 20:01 | 25.06193 | 46.30308 | 6031 ft | 237 kts | 69° |
| 2026-04-24 20:01 | 25.06866 | 46.31974 | 6031 ft | 237 kts | 70° |
| 2026-04-24 20:02 | 25.07317 | 46.33089 | 6031 ft | 236 kts | 70° |
| 2026-04-24 20:02 | 25.08218 | 46.35324 | 6028 ft | 237 kts | 70° |
| 2026-04-24 20:02 | 25.08896 | 46.37002 | 6024 ft | 237 kts | 70° |
| 2026-04-24 20:02 | 25.09573 | 46.38677 | 6023 ft | 237 kts | 70° |
| 2026-04-24 20:03 | 25.10252 | 46.40364 | 6019 ft | 238 kts | 70° |
| 2026-04-24 20:03 | 25.10928 | 46.42040 | 6018 ft | 237 kts | 70° |
| 2026-04-24 20:03 | 25.11612 | 46.43737 | 6020 ft | 238 kts | 70° |
| 2026-04-24 20:03 | 25.12289 | 46.45415 | 6023 ft | 238 kts | 70° |
| 2026-04-24 20:04 | 25.12957 | 46.47071 | 6011 ft | 230 kts | 70° |
| 2026-04-24 20:04 | 25.13610 | 46.48694 | 6021 ft | 227 kts | 70° |
| 2026-04-24 20:04 | 25.14257 | 46.50303 | 6027 ft | 228 kts | 70° |
| 2026-04-24 20:04 | 25.14907 | 46.51918 | 6027 ft | 228 kts | 70° |
| 2026-04-24 20:05 | 25.15503 | 46.53550 | 6015 ft | 226 kts | 82° |
| 2026-04-24 20:05 | 25.15429 | 46.55227 | 6036 ft | 216 kts | 114° |
| 2026-04-24 20:05 | 25.14583 | 46.56549 | 5998 ft | 209 kts | 146° |
| 2026-04-24 20:05 | 25.13324 | 46.57342 | 5748 ft | 203 kts | 153° |
| 2026-04-24 20:06 | 25.12108 | 46.58075 | 5548 ft | 193 kts | 151° |
| 2026-04-24 20:06 | 25.10978 | 46.58773 | 5204 ft | 189 kts | 150° |
| 2026-04-24 20:06 | 25.09796 | 46.59507 | 4628 ft | 197 kts | 149° |
| 2026-04-24 20:06 | 25.08616 | 46.60244 | 4532 ft | 195 kts | 149° |
| 2026-04-24 20:07 | 25.07805 | 46.60751 | 4396 ft | 199 kts | 149° |
| 2026-04-24 20:07 | 25.06271 | 46.61722 | 4026 ft | 184 kts | 147° |
| 2026-04-24 20:07 | 25.05213 | 46.62386 | 3819 ft | 173 kts | 147° |
| 2026-04-24 20:07 | 25.04210 | 46.63020 | 3569 ft | 156 kts | 147° |
| 2026-04-24 20:08 | 25.03293 | 46.63598 | 3371 ft | 150 kts | 146° |
| 2026-04-24 20:08 | 25.02437 | 46.64137 | 3202 ft | 150 kts | 145° |
| 2026-04-24 20:08 | 25.01534 | 46.64709 | 3038 ft | 149 kts | 145° |
| 2026-04-24 20:08 | 25.00625 | 46.65263 | 2846 ft | 150 kts | 147° |
| 2026-04-24 20:09 | 24.99728 | 46.65836 | 2696 ft | 149 kts | 145° |
| 2026-04-24 20:09 | 24.98825 | 46.66409 | 2506 ft | 150 kts | 148° |
| 2026-04-24 20:09 | 24.97927 | 46.66970 | 2292 ft | 150 kts | 148° |
| 2026-04-24 20:09 | 24.97014 | 46.67540 | 2093 ft | 148 kts | 148° |
| 2026-04-24 20:10 | 24.96247 | 46.68017 | 2057 ft | 82 kts | 165° |
| 2026-04-24 20:10 | 24.96033 | 46.68225 | 2056 ft | 16 kts | 110° |
| 2026-04-24 20:10 | 24.96015 | 46.68282 | 2056 ft | 0 kts | 107° |
| 2026-04-24 20:11 | 24.96009 | 46.68311 | 2056 ft | 8 kts | 100° |
| 2026-04-24 20:11 | 24.96010 | 46.68386 | 2056 ft | 11 kts | 73° |
| 2026-04-24 20:12 | 24.96040 | 46.68461 | 2056 ft | 10 kts | 63° |
| 2026-04-24 20:12 | 24.96083 | 46.68542 | 2056 ft | 13 kts | 60° |
| 2026-04-24 20:12 | 24.96136 | 46.68647 | 2056 ft | 17 kts | 61° |
| 2026-04-24 20:12 | 24.96187 | 46.68777 | 2056 ft | 20 kts | 75° |
| 2026-04-24 20:13 | 24.96233 | 46.68891 | 2056 ft | 11 kts | 39° |